Time;durP1;ratioP1;P1;durP2;ratioP2;P2;SDS_P1;SDS_P2;PMS_P1;PMS_P2;Temp;Humidity;BMP_temperature;BMP_pressure;BME280_temperature;BME280_humidity;BME280_pressure;Samples;Min_cycle;Max_cycle;Signal;HPM_P1;HPM_P2
2023/02/20 00:00:30;;;;;;;10.60;5.43;;;;;;;2.78;61.05;100897.20;1472564;88;21915;-76
2023/02/20 00:02:57;;;;;;;;;;;;;;;2.73;61.59;100899.22;1472843;88;21783;-76
2023/02/20 00:05:23;;;;;;;9.53;3.70;;;;;;;2.71;61.44;100901.94;1474780;88;20319;-76
2023/02/20 00:07:50;;;;;;;10.70;3.80;;;;;;;2.66;61.69;100911.33;1474824;88;21902;-76
2023/02/20 00:10:17;;;;;;;9.53;3.50;;;;;;;2.63;61.87;100914.58;1472910;88;21880;-76
2023/02/20 00:12:44;;;;;;;9.53;3.43;;;;;;;2.60;62.00;100912.98;1480906;88;21995;-76
2023/02/20 00:15:14;;;;;;;10.73;4.23;;;;;;;2.56;62.17;100918.01;1464668;88;21908;-76
2023/02/20 00:17:46;;;;;;;5.00;2.60;;;;;;;2.48;62.31;100921.03;1468731;88;22560;-76
2023/02/20 00:20:19;;;;;;;11.10;4.33;;;;;;;2.38;62.24;100926.36;1469026;88;21643;-77
2023/02/20 00:22:46;;;;;;;12.33;3.70;;;;;;;2.36;62.34;100927.37;1476637;88;21786;-76
2023/02/20 00:25:12;;;;;;;6.47;3.17;;;;;;;2.33;62.83;100932.76;1468576;88;21767;-76
2023/02/20 00:27:38;;;;;;;7.40;3.30;;;;;;;2.28;63.13;100938.72;1473068;87;21732;-76
2023/02/20 00:30:06;;;;;;;10.47;3.70;;;;;;;2.23;63.23;100942.86;1480561;88;21559;-77
2023/02/20 00:32:33;;;;;;;8.47;3.40;;;;;;;2.20;62.93;100944.34;1471045;88;21660;-76
2023/02/20 00:34:59;;;;;;;11.03;4.07;;;;;;;2.18;63.44;100951.40;1452694;88;21988;-78
2023/02/20 00:37:25;;;;;;;10.17;4.17;;;;;;;2.14;63.60;100952.03;1472019;88;21664;-79
2023/02/20 00:39:52;;;;;;;12.27;4.53;;;;;;;2.11;63.81;100946.97;1475253;88;21765;-78
2023/02/20 00:42:18;;;;;;;5.80;3.20;;;;;;;2.09;63.79;100944.89;1469759;88;22857;-78
2023/02/20 00:44:45;;;;;;;10.03;2.90;;;;;;;2.06;63.89;100950.28;1473768;88;22550;-78
2023/02/20 00:47:11;;;;;;;7.03;3.00;;;;;;;2.02;63.79;100948.30;1473783;88;21741;-76
2023/02/20 00:49:37;;;;;;;14.97;3.87;;;;;;;1.99;64.08;100951.07;1479395;88;21630;-77
2023/02/20 00:52:03;;;;;;;8.43;4.00;;;;;;;1.97;64.12;100949.45;1458191;88;21682;-77
2023/02/20 00:54:29;;;;;;;9.63;2.90;;;;;;;1.93;64.17;100946.64;1476092;88;22667;-77
2023/02/20 00:56:55;;;;;;;10.30;3.63;;;;;;;1.89;64.27;100945.93;1467690;87;22936;-76
2023/02/20 00:59:22;;;;;;;10.77;3.70;;;;;;;1.90;64.25;100944.16;1471851;88;22640;-77
2023/02/20 01:01:48;;;;;;;10.03;3.03;;;;;;;1.91;64.41;100945.87;1476468;88;21606;-76
2023/02/20 01:04:14;;;;;;;8.60;3.43;;;;;;;1.86;64.68;100941.34;1472184;88;21509;-78
2023/02/20 01:06:41;;;;;;;7.50;3.00;;;;;;;1.82;64.77;100945.87;1473763;88;21671;-77
2023/02/20 01:09:07;;;;;;;7.47;3.30;;;;;;;1.77;65.53;100939.58;1473802;87;22628;-77
2023/02/20 01:11:34;;;;;;;8.13;3.70;;;;;;;1.72;66.05;100944.65;1475526;88;21668;-77
2023/02/20 01:14:00;;;;;;;7.47;2.87;;;;;;;1.63;66.33;100945.96;1478306;88;22011;-77
2023/02/20 01:16:26;;;;;;;11.40;3.37;;;;;;;1.57;66.84;100941.06;1472536;88;22614;-76
2023/02/20 01:18:53;;;;;;;7.50;3.67;;;;;;;1.53;67.45;100948.67;1468716;88;21605;-77
2023/02/20 01:21:19;;;;;;;12.60;3.73;;;;;;;1.45;67.71;100944.29;1475945;88;21821;-76
2023/02/20 01:23:45;;;;;;;8.30;3.77;;;;;;;1.39;68.03;100946.74;1473211;88;22618;-77
2023/02/20 01:26:13;;;;;;;19.30;5.57;;;;;;;1.35;67.87;100946.05;1482297;88;21707;-77
2023/02/20 01:28:41;;;;;;;6.20;3.93;;;;;;;1.31;68.31;100953.63;1465703;88;21749;-77
2023/02/20 01:31:07;;;;;;;8.80;3.83;;;;;;;1.27;68.07;100961.70;1459647;88;21698;-77
2023/02/20 01:33:33;;;;;;;10.57;4.07;;;;;;;1.23;68.52;100962.28;1478165;88;22382;-77
2023/02/20 01:36:00;;;;;;;8.60;4.33;;;;;;;1.22;68.32;100966.28;1479935;88;22758;-77
2023/02/20 01:38:26;;;;;;;11.70;4.43;;;;;;;1.19;69.14;100968.58;1471035;88;21594;-76
2023/02/20 01:40:52;;;;;;;11.53;4.60;;;;;;;1.18;68.93;100967.34;1480656;88;21848;-77
2023/02/20 01:43:19;;;;;;;11.63;5.03;;;;;;;1.14;69.18;100973.16;1473698;88;21689;-77
2023/02/20 01:45:45;;;;;;;10.27;4.70;;;;;;;1.11;69.27;100972.02;1461498;88;21679;-77
2023/02/20 01:48:23;;;;;;;8.50;4.20;;;;;;;1.06;69.75;100966.16;1476938;88;21757;-76
2023/02/20 01:50:54;;;;;;;13.50;4.73;;;;;;;1.10;69.19;100969.88;1471197;88;21584;-77
2023/02/20 01:53:22;;;;;;;9.78;4.03;;;;;;;1.11;69.74;100970.70;1468891;88;21655;-78
2023/02/20 01:55:54;;;;;;;9.10;4.00;;;;;;;1.10;69.83;100974.25;1480708;88;22361;-77
2023/02/20 01:58:32;;;;;;;8.90;3.80;;;;;;;1.10;69.28;100967.73;1466814;88;21517;-77
2023/02/20 02:00:59;;;;;;;8.93;3.90;;;;;;;1.07;69.81;100970.02;1473161;88;21630;-77
2023/02/20 02:03:30;;;;;;;11.43;4.57;;;;;;;1.01;69.79;100973.39;1465228;88;21755;-77
2023/02/20 02:06:04;;;;;;;9.85;3.55;;;;;;;1.00;69.29;100982.10;1471942;88;22213;-77
2023/02/20 02:08:32;;;;;;;9.90;3.77;;;;;;;0.98;69.95;100980.02;1466965;88;22288;-77
2023/02/20 02:11:05;;;;;;;9.93;4.80;;;;;;;0.97;70.79;100979.64;1468339;88;21673;-77
2023/02/20 02:13:34;;;;;;;9.07;4.73;;;;;;;0.95;72.32;100986.68;1473736;87;21472;-77
2023/02/20 02:16:45;;;;;;;9.93;3.70;;;;;;;0.89;73.45;100983.47;1474883;88;22540;-78
2023/02/20 02:19:28;;;;;;;12.13;4.30;;;;;;;0.82;73.46;100978.15;1457715;88;21820;-79
2023/02/20 02:22:25;;;;;;;11.87;4.70;;;;;;;0.81;72.14;100976.94;1468181;88;21618;-78
2023/02/20 02:25:34;;;;;;;11.57;4.03;;;;;;;0.80;72.58;100975.22;1471304;88;21830;-79
2023/02/20 02:28:20;;;;;;;8.83;4.07;;;;;;;0.79;72.08;100971.78;1432518;89;21715;-79
2023/02/20 02:31:10;;;;;;;9.17;4.57;;;;;;;0.78;72.78;100971.41;1476087;88;21811;-78
2023/02/20 02:33:54;;;;;;;12.00;6.47;;;;;;;0.75;73.12;100972.84;1459314;88;21847;-78
2023/02/20 02:36:37;;;;;;;10.90;4.23;;;;;;;0.74;72.41;100967.23;1468933;88;22447;-77
2023/02/20 02:39:26;;;;;;;11.97;5.37;;;;;;;0.72;72.67;100961.70;1463508;88;21773;-78
2023/02/20 02:42:04;;;;;;;7.77;3.50;;;;;;;0.70;72.75;100959.65;1479674;88;21672;-77
2023/02/20 02:44:35;;;;;;;9.60;4.07;;;;;;;0.72;72.12;100966.48;1471387;88;21646;-77
2023/02/20 02:47:19;;;;;;;16.40;4.57;;;;;;;0.71;72.04;100967.38;1476162;88;21766;-77
2023/02/20 02:50:03;;;;;;;11.93;3.77;;;;;;;0.72;72.52;100969.09;1469957;87;21699;-78
2023/02/20 02:52:39;;;;;;;11.33;4.30;;;;;;;0.72;73.29;100975.59;1465225;88;21647;-78
2023/02/20 02:55:08;;;;;;;13.73;6.07;;;;;;;0.74;73.11;100980.26;1474945;88;21576;-78
2023/02/20 02:57:34;;;;;;;17.87;6.77;;;;;;;0.74;72.82;100973.75;1483539;88;21500;-78
2023/02/20 03:00:09;;;;;;;15.97;6.93;;;;;;;0.74;72.57;100976.35;1475525;88;21785;-77
2023/02/20 03:02:59;;;;;;;16.20;6.93;;;;;;;0.72;73.12;100982.11;1468098;88;21609;-78
2023/02/20 03:05:39;;;;;;;14.97;6.37;;;;;;;0.74;73.02;100985.47;1473832;88;21764;-78
2023/02/20 03:08:01;;;;;;;12.50;6.63;;;;;;;0.74;73.51;100980.26;1476213;88;21857;-78
2023/02/20 03:10:31;;;;;;;12.67;6.57;;;;;;;0.76;73.51;100986.25;1470144;88;21811;-77
2023/02/20 03:13:02;;;;;;;12.10;5.77;;;;;;;0.74;73.22;100978.12;1457225;88;21791;-78
2023/02/20 03:15:37;;;;;;;10.33;4.77;;;;;;;0.73;73.21;100992.91;1474366;88;21691;-77
2023/02/20 03:18:26;;;;;;;13.67;6.47;;;;;;;0.72;73.29;100992.97;1472016;88;21692;-77
2023/02/20 03:20:58;;;;;;;22.70;7.67;;;;;;;0.72;73.48;101002.09;1477557;88;21652;-77
2023/02/20 03:23:30;;;;;;;19.30;8.77;;;;;;;0.72;73.33;101003.39;1472647;88;21665;-77
2023/02/20 03:26:18;;;;;;;15.23;7.83;;;;;;;0.74;73.15;101011.53;1467649;87;22433;-78
2023/02/20 03:28:52;;;;;;;16.67;6.83;;;;;;;0.74;73.62;101008.08;1467411;88;21728;-77
2023/02/20 03:31:27;;;;;;;17.77;8.13;;;;;;;0.76;74.54;101017.98;1475140;88;21756;-77
2023/02/20 03:45:33;;;;;;;16.30;6.67;;;;;;;0.74;73.67;101045.86;1472818;88;21819;-77
2023/02/20 03:48:04;;;;;;;14.67;7.50;;;;;;;0.75;73.57;101039.30;1476311;88;22241;-78
2023/02/20 03:53:16;;;;;;;15.00;6.17;;;;;;;0.77;74.57;101041.34;1472919;88;21436;-77
2023/02/20 03:55:43;;;;;;;13.17;7.10;;;;;;;0.77;74.25;101053.53;1473253;88;21486;-76
2023/02/20 03:58:11;;;;;;;16.87;7.97;;;;;;;0.76;73.87;101049.25;1470887;88;21705;-77
2023/02/20 04:00:44;;;;;;;15.53;7.63;;;;;;;0.75;73.63;101053.63;1476028;88;21639;-77
2023/02/20 04:03:25;;;;;;;16.10;7.87;;;;;;;0.75;73.12;101051.02;1482811;88;21890;-77
2023/02/20 04:05:55;;;;;;;18.55;7.03;;;;;;;0.73;72.85;101043.72;1470641;88;22562;-77
2023/02/20 04:08:34;;;;;;;16.97;7.33;;;;;;;0.72;72.67;101049.86;1481612;88;21510;-76
2023/02/20 04:11:12;;;;;;;24.00;12.13;;;;;;;0.72;72.60;101044.65;1470415;88;21450;-76
2023/02/20 04:13:40;;;;;;;32.33;13.53;;;;;;;0.71;72.50;101044.70;1470621;88;21925;-77
2023/02/20 04:16:07;;;;;;;25.97;11.83;;;;;;;0.67;72.44;101042.70;1479200;88;21644;-77
2023/02/20 04:18:34;;;;;;;28.97;13.80;;;;;;;0.65;72.38;101047.13;1473011;88;22651;-77
2023/02/20 04:21:05;;;;;;;29.27;12.77;;;;;;;0.60;72.40;101047.78;1473065;88;21670;-77
2023/02/20 04:23:36;;;;;;;26.60;12.07;;;;;;;0.56;72.30;101044.94;1471343;88;21746;-77
2023/02/20 04:26:13;;;;;;;26.70;13.00;;;;;;;0.53;72.22;101040.70;1466801;88;22331;-77
2023/02/20 04:28:40;;;;;;;26.67;11.87;;;;;;;0.51;72.11;101044.29;1467161;88;22383;-77
2023/02/20 04:31:07;;;;;;;28.23;10.57;;;;;;;0.48;72.17;101041.83;1469620;88;21620;-77
2023/02/20 04:33:33;;;;;;;21.00;9.43;;;;;;;0.45;72.07;101039.73;1470778;88;21678;-77
2023/02/20 04:35:59;;;;;;;27.77;10.23;;;;;;;0.44;72.07;101040.66;1470888;88;22433;-77
2023/02/20 04:38:26;;;;;;;22.23;10.23;;;;;;;0.42;71.91;101048.98;1475497;88;21756;-77
2023/02/20 04:40:52;;;;;;;12.87;6.07;;;;;;;0.42;72.27;101048.98;1472755;87;22224;-77
2023/02/20 04:43:19;;;;;;;13.80;6.50;;;;;;;0.43;72.07;101049.83;1473283;88;22213;-78
2023/02/20 04:45:45;;;;;;;14.63;7.27;;;;;;;0.43;72.00;101052.00;1467202;88;21639;-83
2023/02/20 04:48:11;;;;;;;12.57;7.43;;;;;;;0.44;71.95;101054.98;1473752;88;21808;-84
2023/02/20 04:50:37;;;;;;;18.13;6.67;;;;;;;0.43;71.85;101062.42;1480253;88;22726;-83
2023/02/20 04:53:04;;;;;;;15.73;5.80;;;;;;;0.44;71.85;101052.38;1468491;88;22630;-84
2023/02/20 04:55:30;;;;;;;14.90;6.40;;;;;;;0.42;71.84;101050.29;1474196;88;22596;-84
2023/02/20 04:57:57;;;;;;;14.07;7.70;;;;;;;0.41;71.94;101048.61;1476924;88;21634;-83
2023/02/20 05:00:25;;;;;;;21.23;9.40;;;;;;;0.40;72.37;101050.84;1469522;88;21592;-82
2023/02/20 05:02:53;;;;;;;21.23;9.20;;;;;;;0.38;72.10;101049.20;1471757;87;21599;-84
2023/02/20 05:05:25;;;;;;;25.33;10.17;;;;;;;0.36;72.10;101057.53;1475833;88;21697;-83
2023/02/20 05:07:59;;;;;;;19.77;9.43;;;;;;;0.35;72.02;101056.69;1471707;88;21717;-84
2023/02/20 05:10:28;;;;;;;16.73;9.47;;;;;;;0.35;72.07;101059.30;1473997;88;21743;-84
2023/02/20 05:12:55;;;;;;;14.37;8.13;;;;;;;0.35;72.00;101067.11;1476101;88;21870;-85
2023/02/20 05:15:22;;;;;;;18.27;8.53;;;;;;;0.34;72.02;101064.09;1478561;88;21553;-83
2023/02/20 05:17:48;;;;;;;15.37;8.43;;;;;;;0.37;71.99;101074.37;1470353;88;22692;-84
2023/02/20 05:20:16;;;;;;;18.13;10.20;;;;;;;0.38;71.94;101072.19;1473387;88;21712;-85
2023/02/20 05:22:44;;;;;;;18.23;10.30;;;;;;;0.38;71.90;101070.87;1474195;88;21652;-83
2023/02/20 05:25:10;;;;;;;18.43;10.10;;;;;;;0.43;71.90;101074.57;1438897;88;23058;-87
2023/02/20 05:27:37;;;;;;;16.27;8.40;;;;;;;0.43;71.68;101066.33;1473552;88;21780;-83
2023/02/20 05:30:05;;;;;;;14.43;7.90;;;;;;;0.46;71.65;101071.83;1475341;88;21959;-84
2023/02/20 05:32:31;;;;;;;16.57;7.10;;;;;;;0.51;71.66;101075.55;1471275;88;22160;-83
2023/02/20 05:34:58;;;;;;;14.77;6.57;;;;;;;0.54;71.33;101067.59;1469606;88;21702;-84
2023/02/20 05:37:25;;;;;;;12.67;6.73;;;;;;;0.60;71.35;101077.73;1480341;88;21701;-83
2023/02/20 05:39:52;;;;;;;17.90;5.83;;;;;;;0.62;71.26;101065.50;1473161;88;21600;-83
2023/02/20 05:42:18;;;;;;;10.03;5.33;;;;;;;0.65;71.16;101065.36;1480327;88;21685;-85
2023/02/20 05:44:45;;;;;;;11.27;5.53;;;;;;;0.67;71.04;101064.84;1471344;88;21478;-84
2023/02/20 05:47:11;;;;;;;10.47;5.30;;;;;;;0.69;71.04;101070.81;1470938;88;21838;-84
2023/02/20 05:49:37;;;;;;;9.90;5.40;;;;;;;0.73;71.17;101074.98;1473693;88;21479;-85
2023/02/20 05:52:12;;;;;;;10.10;5.10;;;;;;;0.78;71.09;101073.48;1458249;88;21807;-84
2023/02/20 05:54:40;;;;;;;7.40;4.70;;;;;;;0.82;70.98;101077.63;1471861;88;21645;-83
2023/02/20 05:57:07;;;;;;;20.47;7.17;;;;;;;0.87;70.68;101080.42;1472120;88;21605;-83
2023/02/20 05:59:33;;;;;;;16.23;7.03;;;;;;;0.95;70.74;101087.03;1474751;88;21804;-83
2023/02/20 06:02:00;;;;;;;19.13;7.20;;;;;;;0.99;70.29;101093.81;1474099;88;22506;-82
2023/02/20 06:04:27;;;;;;;23.10;9.90;;;;;;;1.03;69.78;101092.75;1473264;88;22512;-83
2023/02/20 06:06:53;;;;;;;18.13;8.80;;;;;;;1.10;70.03;101090.26;1470629;88;22677;-84
2023/02/20 06:09:20;;;;;;;18.10;8.60;;;;;;;1.15;70.06;101096.08;1469314;88;22748;-83
2023/02/20 06:11:56;;;;;;;14.57;8.23;;;;;;;1.20;70.05;101090.67;1472972;88;21676;-83
2023/02/20 06:14:24;;;;;;;17.97;8.33;;;;;;;1.25;70.25;101088.70;1475942;88;21682;-82
2023/02/20 06:16:51;;;;;;;10.57;6.10;;;;;;;1.30;70.29;101096.70;1478255;88;22591;-83
2023/02/20 06:19:23;;;;;;;13.20;5.47;;;;;;;1.37;70.42;101089.88;1470744;88;22581;-89
2023/02/20 06:21:52;;;;;;;13.27;6.30;;;;;;;1.44;70.57;101093.88;1471608;88;22496;-82
2023/02/20 06:24:20;;;;;;;14.40;5.63;;;;;;;1.52;70.82;101096.50;1469053;88;21682;-83
2023/02/20 06:26:46;;;;;;;10.13;5.17;;;;;;;1.58;71.04;101107.11;1469025;88;22588;-81
2023/02/20 06:29:14;;;;;;;14.33;6.13;;;;;;;1.66;71.17;101107.59;1471895;88;23366;-81
2023/02/20 06:32:16;;;;;;;11.20;4.73;;;;;;;1.71;71.38;101113.44;1470866;88;21668;-81
2023/02/20 06:34:44;;;;;;;11.83;6.60;;;;;;;1.77;71.66;101114.44;1475619;87;21656;-81
2023/02/20 06:37:19;;;;;;;10.23;6.77;;;;;;;1.85;73.43;101114.55;1471534;88;22101;-81
2023/02/20 06:39:48;;;;;;;15.70;8.37;;;;;;;1.95;72.70;101107.94;1468534;88;21553;-81
2023/02/20 06:42:14;;;;;;;21.50;10.53;;;;;;;2.00;74.30;101100.73;1472102;88;22897;-81
2023/02/20 06:44:41;;;;;;;16.43;8.60;;;;;;;2.11;73.45;101111.48;1469752;88;22692;-81
2023/02/20 06:47:08;;;;;;;19.97;9.23;;;;;;;2.23;73.70;101114.78;1475819;88;21614;-84
2023/02/20 06:49:36;;;;;;;16.13;8.23;;;;;;;2.38;75.39;101111.00;1476473;88;21705;-81
2023/02/20 06:52:04;;;;;;;14.40;7.03;;;;;;;2.51;75.41;101110.77;1475243;88;21824;-81
2023/02/20 06:54:31;;;;;;;17.70;8.30;;;;;;;2.63;75.51;101109.29;1477623;88;21730;-81
2023/02/20 06:56:58;;;;;;;23.77;8.60;;;;;;;2.73;76.45;101111.78;1472944;88;21922;-79
2023/02/20 06:59:24;;;;;;;20.80;8.80;;;;;;;2.82;77.04;101118.30;1466822;88;21887;-80
2023/02/20 07:01:51;;;;;;;19.03;8.33;;;;;;;2.96;78.26;101123.64;1473027;88;21997;-81
2023/02/20 07:04:22;;;;;;;14.13;8.03;;;;;;;2.96;78.26;101123.64;1469901;88;21939;-82
2023/02/20 07:06:49;;;;;;;14.13;6.93;;;;;;;3.05;77.68;101127.53;1474004;88;22008;-82
2023/02/20 07:09:16;;;;;;;13.63;6.43;;;;;;;3.30;76.78;101121.83;1471526;88;21890;-82
2023/02/20 07:11:42;;;;;;;9.30;5.67;;;;;;;3.30;76.78;101121.83;1478309;88;22138;-84
2023/02/20 07:14:13;;;;;;;9.17;4.93;;;;;;;3.28;75.32;101121.06;1473723;88;21896;-83
2023/02/20 07:16:39;;;;;;;9.17;5.67;;;;;;;3.28;75.15;101126.29;1468892;88;23171;-84
2023/02/20 07:19:05;;;;;;;11.27;5.50;;;;;;;3.23;75.14;101129.65;1470213;88;22093;-85
2023/02/20 07:21:32;;;;;;;13.60;6.53;;;;;;;3.14;75.65;101122.67;1454129;88;22067;-85
2023/02/20 07:23:58;;;;;;;13.07;6.57;;;;;;;3.14;75.65;101125.29;1470303;88;22103;-86
2023/02/20 07:26:29;;;;;;;13.63;7.47;;;;;;;3.20;75.79;101126.73;1475339;88;22219;-84
2023/02/20 07:29:03;;;;;;;10.07;6.13;;;;;;;3.20;75.79;101126.73;1456722;88;22098;-84
2023/02/20 07:31:32;;;;;;;14.77;7.47;;;;;;;3.19;76.17;101121.56;1428625;88;22020;-82
2023/02/20 07:33:58;;;;;;;13.20;8.00;;;;;;;3.19;76.17;101113.72;1434622;88;22124;-80
2023/02/20 07:36:25;;;;;;;12.37;6.43;;;;;;;3.20;75.39;101116.27;1450370;88;22129;-84
2023/02/20 07:38:57;;;;;;;10.33;5.70;;;;;;;3.24;75.99;101118.24;1456562;88;22734;-82
2023/02/20 07:41:25;;;;;;;9.30;5.37;;;;;;;3.33;76.04;101109.41;1457788;88;22952;-83
2023/02/20 07:43:51;;;;;;;8.77;5.43;;;;;;;3.48;75.58;101108.19;1435472;88;22261;-82
2023/02/20 07:46:18;;;;;;;8.80;4.83;;;;;;;3.70;74.73;101110.45;1435360;88;22100;-81
2023/02/20 07:48:44;;;;;;;10.43;4.87;;;;;;;3.82;73.17;101107.13;1440248;88;22238;-83
2023/02/20 07:51:10;;;;;;;10.87;5.20;;;;;;;3.96;72.99;101111.11;1438664;88;21997;-82
2023/02/20 07:53:37;;;;;;;11.30;5.10;;;;;;;4.11;72.34;101117.70;1479565;88;22042;-82
2023/02/20 07:56:05;;;;;;;8.30;4.87;;;;;;;4.26;71.65;101111.13;1479024;88;21984;-83
2023/02/20 07:58:31;;;;;;;10.47;5.03;;;;;;;4.42;69.99;101115.45;1482543;87;21525;-82
2023/02/20 08:00:57;;;;;;;13.17;4.70;;;;;;;4.58;68.87;101107.52;1493361;88;22035;-82
2023/02/20 08:03:23;;;;;;;6.37;3.20;;;;;;;4.69;65.94;101115.55;1430900;88;21518;-80
2023/02/20 08:05:49;;;;;;;9.00;3.63;;;;;;;4.85;65.49;101104.52;1438220;88;21938;-82
2023/02/20 08:08:16;;;;;;;17.63;5.03;;;;;;;5.05;63.73;101111.63;1482623;88;21411;-81
2023/02/20 08:10:42;;;;;;;8.93;3.27;;;;;;;5.05;63.73;101111.63;1521199;88;21371;-83
2023/02/20 08:13:08;;;;;;;4.97;2.83;;;;;;;5.20;64.88;101110.66;1475635;88;21409;-82
2023/02/20 08:15:35;;;;;;;8.07;2.90;;;;;;;5.30;63.21;101113.09;1481289;88;21296;-83
2023/02/20 08:18:01;;;;;;;7.07;3.27;;;;;;;5.34;61.99;101112.42;1464844;88;21267;-83
2023/02/20 08:20:27;;;;;;;7.60;3.27;;;;;;;5.48;63.05;101107.14;1480560;88;21311;-83
2023/02/20 08:22:53;;;;;;;5.87;2.80;;;;;;;5.56;61.60;101107.97;1434824;88;21474;-82
2023/02/20 08:25:20;;;;;;;8.10;2.50;;;;;;;5.58;59.26;101102.13;1435922;88;21393;-83
2023/02/20 08:27:48;;;;;;;2.97;1.90;;;;;;;5.65;60.15;101096.86;1455340;88;21252;-82
2023/02/20 08:30:22;;;;;;;5.80;2.17;;;;;;;5.69;58.81;101097.50;1446133;88;21289;-82
2023/02/20 08:32:48;;;;;;;3.60;1.50;;;;;;;5.64;59.51;101089.46;1482526;88;22260;-80
2023/02/20 08:35:14;;;;;;;5.87;2.40;;;;;;;5.71;57.60;101089.06;1473285;88;22464;-81
2023/02/20 08:37:41;;;;;;;4.90;2.33;;;;;;;5.71;56.57;101078.55;1472860;88;21327;-82
2023/02/20 08:40:09;;;;;;;4.73;2.13;;;;;;;5.77;58.08;101071.10;1445812;88;21304;-82
2023/02/20 08:42:35;;;;;;;4.17;2.03;;;;;;;5.83;58.27;101067.23;1499751;88;21326;-83
2023/02/20 08:45:04;;;;;;;7.20;2.70;;;;;;;5.91;59.06;101059.69;1521132;88;21507;-81
2023/02/20 08:51:32;;;;;;;7.87;2.80;;;;;;;6.15;58.99;101062.48;1422557;88;21296;-81
2023/02/20 08:53:59;;;;;;;4.37;1.97;;;;;;;5.99;57.73;101057.91;1444724;88;21311;-82
2023/02/20 08:56:25;;;;;;;5.50;2.63;;;;;;;5.96;58.08;101055.01;1441451;88;21687;-83
2023/02/20 08:58:52;;;;;;;5.23;2.40;;;;;;;5.88;57.11;101047.59;1450387;88;21415;-80
2023/02/20 09:04:57;;;;;;;3.87;2.10;;;;;;;5.77;56.79;101055.82;1464672;88;21502;-86
2023/02/20 09:07:23;;;;;;;6.80;2.60;;;;;;;5.66;56.98;101042.91;1471574;88;21421;-86
2023/02/20 09:09:50;;;;;;;11.83;3.10;;;;;;;5.71;57.99;101038.68;1470410;88;21429;-86
2023/02/20 09:12:17;;;;;;;5.07;2.60;;;;;;;5.75;58.61;101024.39;1470286;88;22338;-84
2023/02/20 09:14:44;;;;;;;9.17;3.00;;;;;;;5.96;58.94;101021.33;1477410;88;21548;-80
2023/02/20 09:17:10;;;;;;;6.07;2.50;;;;;;;5.95;56.81;101021.78;1455291;88;21421;-83
2023/02/20 09:19:36;;;;;;;4.20;1.97;;;;;;;6.02;57.20;101020.91;1473308;88;21421;-80
2023/02/20 09:22:03;;;;;;;5.57;2.30;;;;;;;5.99;57.52;101026.38;1474802;88;22479;-81
2023/02/20 09:24:32;;;;;;;6.87;2.43;;;;;;;6.01;58.26;101012.64;1471653;88;21614;-81
2023/02/20 09:26:57;;;;;;;9.80;2.67;;;;;;;6.05;59.03;101025.95;1470795;88;21434;-85
2023/02/20 09:29:24;;;;;;;8.23;2.90;;;;;;;5.93;59.20;101023.69;1476671;88;22383;-83
2023/02/20 09:31:50;;;;;;;3.93;2.57;;;;;;;5.80;59.87;101017.05;1471292;87;21730;-83
2023/02/20 09:34:16;;;;;;;4.53;2.17;;;;;;;5.79;60.61;101013.23;1465611;88;21766;-83
2023/02/20 09:36:46;;;;;;;5.53;2.20;;;;;;;5.63;60.87;101005.03;1472763;88;21510;-84
2023/02/20 09:39:16;;;;;;;3.07;1.93;;;;;;;5.65;60.71;101005.78;1473485;88;21543;-83
2023/02/20 09:42:12;;;;;;;5.20;2.43;;;;;;;5.54;60.96;101006.13;1472481;88;21451;-76
2023/02/20 09:45:02;;;;;;;5.40;2.37;;;;;;;5.56;61.10;101014.75;1473034;88;21923;-77
2023/02/20 09:48:01;;;;;;;9.67;2.57;;;;;;;5.52;61.85;101005.38;1468532;88;21511;-78
2023/02/20 09:50:36;;;;;;;4.87;2.60;;;;;;;5.51;62.11;100993.20;1475740;88;21369;-76
2023/02/20 09:53:27;;;;;;;6.53;3.23;;;;;;;5.58;62.02;101011.53;1473268;88;21635;-77
2023/02/20 09:55:55;;;;;;;9.45;3.75;;;;;;;5.54;62.45;101016.63;1471131;88;21503;-76
2023/02/20 09:58:45;;;;;;;5.70;2.80;;;;;;;5.69;62.45;101007.73;1464965;88;21599;-77
2023/02/20 10:01:16;;;;;;;5.23;2.67;;;;;;;5.76;62.18;100990.63;1471613;88;22433;-75
2023/02/20 10:03:49;;;;;;;;;;;;;;;5.91;62.37;100994.01;1426358;88;21563;-75
2023/02/20 10:06:19;;;;;;;5.77;3.43;;;;;;;5.96;62.45;100999.83;1434160;88;20391;-77
2023/02/20 10:08:48;;;;;;;7.70;2.87;;;;;;;5.96;62.64;100987.17;1445101;87;21312;-76
2023/02/20 10:11:42;;;;;;;5.30;2.17;;;;;;;6.07;63.24;100978.05;1438952;88;21356;-76
2023/02/20 10:14:43;;;;;;;4.00;2.23;;;;;;;6.52;61.91;100982.39;1469356;88;22163;-77
2023/02/20 10:17:43;;;;;;;8.38;3.80;;;;;;;7.05;59.61;100961.95;1458273;88;21311;-76
2023/02/20 10:20:41;;;;;;;6.07;3.37;;;;;;;7.73;57.87;100956.44;1440810;88;21282;-78
2023/02/20 10:23:31;;;;;;;5.63;3.10;;;;;;;8.17;57.26;100944.30;1441202;88;21289;-78
2023/02/20 10:26:02;;;;;;;9.63;3.33;;;;;;;8.26;56.67;100923.79;1472839;88;21488;-77
2023/02/20 10:28:29;;;;;;;6.37;4.00;;;;;;;8.27;55.69;100937.33;1441655;88;21318;-78
2023/02/20 10:31:06;;;;;;;5.00;3.07;;;;;;;8.49;55.94;100956.30;1440387;88;21592;-76
2023/02/20 10:33:50;;;;;;;5.33;2.37;;;;;;;8.57;54.03;100945.98;1457239;88;21393;-77
2023/02/20 10:36:27;;;;;;;6.63;3.23;;;;;;;8.60;54.58;100951.47;1481047;88;21559;-77
2023/02/20 10:39:07;;;;;;;8.00;3.63;;;;;;;8.47;54.79;100941.06;1448464;88;21349;-77
2023/02/20 10:41:53;;;;;;;5.50;2.87;;;;;;;8.21;53.05;100934.34;1460111;88;21275;-78
2023/02/20 10:44:39;;;;;;;8.00;2.63;;;;;;;8.08;54.67;100939.22;1450912;88;21511;-78
2023/02/20 10:47:16;;;;;;;5.40;2.83;;;;;;;7.53;52.66;100953.98;1470898;87;21362;-78
2023/02/20 10:50:09;;;;;;;9.07;3.97;;;;;;;7.37;53.24;100923.19;1521194;88;22177;-78
2023/02/20 10:52:55;;;;;;;6.90;3.63;;;;;;;7.36;54.66;100911.78;1501512;88;22110;-78
2023/02/20 10:55:51;;;;;;;11.00;5.33;;;;;;;7.30;54.92;100903.52;1479128;88;21296;-77
2023/02/20 10:58:42;;;;;;;9.90;3.03;;;;;;;7.16;54.63;100910.67;1442850;88;21496;-78
2023/02/20 11:01:12;;;;;;;8.28;3.87;;;;;;;7.12;54.58;100906.56;1416672;88;21296;-79
2023/02/20 11:03:55;;;;;;;9.23;3.08;;;;;;;7.13;55.43;100913.50;1451217;88;21544;-79
2023/02/20 11:06:26;;;;;;;8.33;2.90;;;;;;;7.18;55.26;100886.84;1467093;88;22403;-78
2023/02/20 11:08:52;;;;;;;6.73;4.13;;;;;;;7.10;54.52;100895.30;1469444;88;21591;-77
2023/02/20 11:11:24;;;;;;;7.50;3.87;;;;;;;7.16;54.79;100885.66;1468045;88;21565;-77
2023/02/20 11:13:51;;;;;;;5.97;2.90;;;;;;;7.42;55.19;100887.66;1475152;88;22977;-78
2023/02/20 11:16:27;;;;;;;9.57;3.43;;;;;;;7.34;54.08;100883.92;1469809;88;22539;-78
2023/02/20 11:19:13;;;;;;;9.47;3.10;;;;;;;7.50;54.70;100872.56;1473950;88;21532;-79
2023/02/20 11:21:47;;;;;;;6.70;3.30;;;;;;;7.48;54.90;100865.28;1469645;88;21494;-79
2023/02/20 11:24:25;;;;;;;10.67;4.60;;;;;;;7.61;55.17;100865.17;1468925;88;21495;-78
2023/02/20 11:26:59;;;;;;;6.73;3.23;;;;;;;7.81;54.47;100860.52;1466388;88;21561;-79
2023/02/20 11:29:36;;;;;;;9.03;4.30;;;;;;;7.99;52.66;100867.45;1469566;88;21473;-79
2023/02/20 11:32:40;;;;;;;6.63;3.40;;;;;;;8.21;53.23;100865.78;1475379;88;21451;-78
2023/02/20 11:35:21;;;;;;;7.87;3.43;;;;;;;8.40;53.68;100862.53;1470387;88;21519;-79
2023/02/20 11:38:16;;;;;;;9.20;3.40;;;;;;;8.42;53.04;100857.49;1467537;88;21545;-78
2023/02/20 11:41:00;;;;;;;6.10;2.83;;;;;;;8.46;52.38;100856.76;1471911;88;21480;-78
2023/02/20 11:43:39;;;;;;;6.73;2.80;;;;;;;8.44;51.78;100846.34;1474868;88;21444;-78
2023/02/20 11:46:21;;;;;;;4.20;2.30;;;;;;;8.35;52.08;100847.06;1444573;88;21304;-78
2023/02/20 11:49:04;;;;;;;6.73;4.13;;;;;;;8.18;51.85;100847.57;1457371;88;21290;-77
2023/02/20 11:51:41;;;;;;;6.03;3.07;;;;;;;7.96;52.11;100840.02;1476201;87;21474;-77
2023/02/20 11:54:15;;;;;;;4.40;2.90;;;;;;;7.80;52.18;100834.30;1434989;88;21305;-79
2023/02/20 11:57:07;;;;;;;6.97;3.67;;;;;;;7.73;52.75;100818.10;1456807;87;21341;-79
2023/02/20 11:59:42;;;;;;;5.67;2.60;;;;;;;7.71;52.77;100831.03;1424462;88;21408;-78
2023/02/20 12:02:20;;;;;;;8.13;3.90;;;;;;;7.76;53.03;100822.30;1459660;88;21341;-78
2023/02/20 12:05:10;;;;;;;7.97;3.00;;;;;;;7.68;53.00;100810.58;1429664;88;21341;-78
2023/02/20 12:07:54;;;;;;;6.97;3.58;;;;;;;7.73;53.59;100814.64;1425520;89;21239;-78
2023/02/20 12:10:43;;;;;;;11.03;4.27;;;;;;;7.67;53.17;100822.54;1448072;88;21385;-75
2023/02/20 12:13:15;;;;;;;7.33;5.00;;;;;;;7.54;53.39;100804.22;1456475;88;21497;-78